Time;durP1;ratioP1;P1;durP2;ratioP2;P2;SDS_P1;SDS_P2;PMS_P1;PMS_P2;Temp;Humidity;BMP_temperature;BMP_pressure;BME280_temperature;BME280_humidity;BME280_pressure;Samples;Min_cycle;Max_cycle;Signal;HPM_P1;HPM_P2
2022/12/18 00:02:15;;;;;;;41.30;16.48;;;;;;;-3.98;98.93;102896.50;6250202;22;20020;-76
2022/12/18 00:04:41;;;;;;;31.20;13.88;;;;;;;-4.02;98.82;102892.97;6249961;22;20019;-77
2022/12/18 00:07:08;;;;;;;32.22;15.80;;;;;;;-4.05;98.91;102886.50;6250214;22;20072;-76
2022/12/18 00:09:34;;;;;;;38.60;15.05;;;;;;;-4.07;98.93;102867.81;6222216;22;20044;-76
2022/12/18 00:12:07;;;;;;;33.58;13.77;;;;;;;-4.12;98.72;102864.53;6250291;22;20032;-77
2022/12/18 00:14:44;;;;;;;35.40;13.50;;;;;;;-4.22;98.72;102860.28;6249382;22;20023;-76
2022/12/18 00:17:10;;;;;;;39.15;14.23;;;;;;;-4.26;98.76;102859.28;6250046;22;20411;-76
2022/12/18 00:19:37;;;;;;;38.08;14.52;;;;;;;-4.30;99.21;102865.34;6249587;22;20462;-77
2022/12/18 00:22:03;;;;;;;41.90;15.93;;;;;;;-4.31;98.93;102869.78;6249860;22;20095;-77
2022/12/18 00:24:30;;;;;;;35.55;14.93;;;;;;;-4.30;98.96;102868.72;6249078;22;20085;-76
2022/12/18 00:26:56;;;;;;;42.22;16.27;;;;;;;-4.31;98.76;102876.81;6197722;22;20488;-76
2022/12/18 00:29:22;;;;;;;37.25;15.38;;;;;;;-4.33;98.76;102881.53;6249882;22;20016;-77
2022/12/18 00:31:49;;;;;;;35.70;15.02;;;;;;;-4.32;99.19;102883.06;6250023;22;20457;-76
2022/12/18 00:34:16;;;;;;;38.67;16.58;;;;;;;-4.35;98.87;102874.00;6222489;22;20013;-76
2022/12/18 00:36:42;;;;;;;41.53;16.75;;;;;;;-4.38;98.68;102864.94;6222288;22;20023;-77
2022/12/18 00:39:11;;;;;;;36.97;14.75;;;;;;;-4.40;98.81;102869.66;6223342;22;20017;-74
2022/12/18 00:44:24;;;;;;;38.85;16.08;;;;;;;-4.42;98.77;102871.81;6223550;22;20027;-76
2022/12/18 00:46:51;;;;;;;36.05;15.38;;;;;;;-4.43;98.79;102866.88;6224048;22;20459;-76
2022/12/18 00:49:19;;;;;;;29.92;13.95;;;;;;;-4.46;98.62;102864.84;6251154;22;20574;-76
2022/12/18 00:51:46;;;;;;;39.80;14.57;;;;;;;-4.51;98.78;102867.53;6222966;22;20017;-76
2022/12/18 00:54:13;;;;;;;35.80;14.80;;;;;;;-4.51;98.98;102872.72;6251087;22;20265;-76
2022/12/18 00:56:40;;;;;;;40.97;16.88;;;;;;;-4.52;99.00;102866.00;6250738;22;20044;-76
2022/12/18 00:59:17;;;;;;;36.58;16.00;;;;;;;-4.50;99.08;102869.84;6251336;22;20013;-76
2022/12/18 01:01:44;;;;;;;34.30;14.90;;;;;;;-4.51;99.04;102875.34;6250826;22;20978;-76
2022/12/18 01:04:11;;;;;;;41.05;14.75;;;;;;;-4.52;98.90;102864.16;6250988;22;20017;-76
2022/12/18 01:06:38;;;;;;;40.05;15.13;;;;;;;-4.51;99.12;102857.91;6250283;22;20324;-76
2022/12/18 01:09:05;;;;;;;41.97;16.33;;;;;;;-4.53;98.98;102847.03;6199056;22;20017;-77
2022/12/18 01:11:35;;;;;;;30.30;15.20;;;;;;;-4.56;99.15;102857.22;6223354;22;20040;-76
2022/12/18 01:14:03;;;;;;;36.88;15.07;;;;;;;-4.55;99.12;102858.75;6250891;22;20087;-76
2022/12/18 01:16:30;;;;;;;38.92;15.05;;;;;;;-4.60;98.85;102862.22;6223672;22;20123;-76
2022/12/18 01:18:56;;;;;;;40.70;15.38;;;;;;;-4.55;99.09;102864.72;6251203;22;20477;-76
2022/12/18 01:21:25;;;;;;;37.58;15.73;;;;;;;-4.57;99.07;102861.63;6249989;22;20067;-76
2022/12/18 01:23:54;;;;;;;33.03;14.48;;;;;;;-4.58;99.08;102864.53;6223623;22;20098;-76
2022/12/18 01:26:23;;;;;;;38.28;15.68;;;;;;;-4.59;98.98;102865.56;6250944;22;20092;-76
2022/12/18 01:28:50;;;;;;;42.60;16.67;;;;;;;-4.60;99.16;102880.41;6250956;22;20398;-76
2022/12/18 01:31:25;;;;;;;38.92;14.95;;;;;;;-4.62;98.99;102884.34;6224219;22;20012;-76
2022/12/18 01:33:54;;;;;;;38.08;15.02;;;;;;;-4.64;99.08;102876.06;6223797;22;20485;-76
2022/12/18 01:36:28;;;;;;;35.85;14.50;;;;;;;-4.65;98.91;102882.31;6250189;22;20423;-76
2022/12/18 01:38:55;;;;;;;31.55;13.13;;;;;;;-4.70;99.00;102875.34;6250746;22;20012;-76
2022/12/18 01:41:25;;;;;;;36.40;14.75;;;;;;;-4.71;99.00;102884.19;6250763;22;20059;-76
2022/12/18 01:43:56;;;;;;;38.92;15.32;;;;;;;-4.71;99.03;102884.19;6223222;22;20024;-77
2022/12/18 01:46:24;;;;;;;35.45;15.23;;;;;;;-4.73;99.06;102892.28;6223913;22;20025;-76
2022/12/18 01:49:01;;;;;;;29.92;14.60;;;;;;;-4.73;99.03;102888.91;6250838;22;20391;-76
2022/12/18 01:51:30;;;;;;;34.75;14.93;;;;;;;-4.71;98.99;102884.19;6250093;22;20087;-76
2022/12/18 01:53:58;;;;;;;37.45;14.88;;;;;;;-4.72;98.88;102885.25;6222968;22;20013;-76
2022/12/18 01:56:25;;;;;;;37.78;15.80;;;;;;;-4.77;99.03;102880.91;6249829;22;20075;-76
2022/12/18 01:59:06;;;;;;;46.47;16.75;;;;;;;-4.81;98.89;102884.38;6223383;22;20017;-77
2022/12/18 02:01:33;;;;;;;43.97;16.98;;;;;;;-4.83;99.07;102884.66;6250571;22;20099;-76
2022/12/18 02:04:21;;;;;;;36.10;13.88;;;;;;;-4.88;98.99;102891.75;6222885;22;20075;-76
2022/12/18 02:06:57;;;;;;;37.55;15.05;;;;;;;-4.91;98.86;102892.31;6250297;22;20024;-75
2022/12/18 02:09:34;;;;;;;37.58;15.70;;;;;;;-4.94;99.06;102893.66;6250659;22;20517;-75
2022/12/18 02:12:13;;;;;;;42.30;16.27;;;;;;;-4.95;98.97;102892.09;6223633;22;20358;-75
2022/12/18 02:14:58;;;;;;;28.58;12.77;;;;;;;-4.98;98.87;102897.09;6249576;22;20019;-75
2022/12/18 02:17:42;;;;;;;37.65;14.60;;;;;;;-5.03;98.75;102890.91;6223090;22;20020;-75
2022/12/18 02:20:25;;;;;;;37.42;16.17;;;;;;;-5.03;98.87;102892.72;6250058;22;20020;-74
2022/12/18 02:23:05;;;;;;;37.08;15.30;;;;;;;-5.03;98.93;102892.72;6250586;22;20016;-75
2022/12/18 02:26:02;;;;;;;43.05;17.45;;;;;;;-5.05;98.65;102897.44;6249890;22;20435;-75
2022/12/18 02:28:33;;;;;;;39.15;14.77;;;;;;;-5.06;98.77;102898.47;6198028;22;20021;-74
2022/12/18 02:31:07;;;;;;;39.45;16.65;;;;;;;-5.06;98.73;102901.84;6223488;22;20021;-75
2022/12/18 02:33:36;;;;;;;35.75;15.60;;;;;;;-5.09;98.67;102896.44;6222491;22;20423;-75
2022/12/18 02:36:05;;;;;;;41.10;15.82;;;;;;;-5.10;98.67;102894.91;6223250;22;20017;-75
2022/12/18 02:38:33;;;;;;;39.15;17.00;;;;;;;-5.12;98.65;102892.56;6222796;22;20025;-75
2022/12/18 02:41:07;;;;;;;38.38;15.82;;;;;;;-5.14;98.49;102889.47;6223233;22;20103;-75
2022/12/18 02:43:34;;;;;;;38.10;15.55;;;;;;;-5.16;98.35;102886.41;6222593;22;20017;-74
2022/12/18 02:46:36;;;;;;;38.40;15.70;;;;;;;-5.15;98.25;102887.94;6197963;22;20021;-74
2022/12/18 02:49:21;;;;;;;36.15;15.30;;;;;;;-5.16;98.39;102873.41;6222976;22;20454;-75
2022/12/18 02:51:53;;;;;;;31.65;15.07;;;;;;;-5.19;98.23;102866.19;6250203;22;20023;-76
2022/12/18 02:54:36;;;;;;;34.88;14.32;;;;;;;-5.20;97.91;102867.25;6250805;22;20093;-74
2022/12/18 02:57:22;;;;;;;34.75;14.98;;;;;;;-5.23;98.23;102870.41;6250339;22;20088;-74
2022/12/18 03:00:12;;;;;;;37.00;16.40;;;;;;;-5.23;98.05;102875.59;6223354;22;20020;-74
2022/12/18 03:02:47;;;;;;;31.67;14.43;;;;;;;-5.25;98.02;102866.56;6222466;22;20052;-74
2022/12/18 03:05:22;;;;;;;34.95;14.77;;;;;;;-5.27;97.80;102868.66;6223545;22;20075;-74
2022/12/18 03:08:03;;;;;;;39.10;15.38;;;;;;;-5.31;97.55;102859.88;6249992;22;20391;-77
2022/12/18 03:10:42;;;;;;;31.80;14.77;;;;;;;-5.36;97.67;102852.91;6223237;22;20024;-74
2022/12/18 03:13:13;;;;;;;40.88;17.50;;;;;;;-5.40;97.59;102847.50;6223405;22;20017;-75
2022/12/18 03:15:45;;;;;;;38.58;15.68;;;;;;;-5.39;97.74;102861.25;6198197;22;20161;-74
2022/12/18 03:18:21;;;;;;;41.38;15.00;;;;;;;-5.38;97.69;102853.19;6222568;22;20088;-74
2022/12/18 03:20:50;;;;;;;36.47;15.57;;;;;;;-5.40;97.47;102851.94;6197926;22;20028;-75
2022/12/18 03:23:24;;;;;;;32.25;14.23;;;;;;;-5.43;97.13;102844.69;6250376;22;20020;-74
2022/12/18 03:25:55;;;;;;;34.95;14.82;;;;;;;-5.45;97.52;102842.38;6250401;22;20020;-75
2022/12/18 03:28:27;;;;;;;28.83;14.32;;;;;;;-5.49;97.32;102838.78;6222563;22;20021;-75
2022/12/18 03:31:01;;;;;;;32.55;15.52;;;;;;;-5.51;97.13;102832.34;6222698;22;20036;-77
2022/12/18 03:33:40;;;;;;;35.58;14.80;;;;;;;-5.55;97.21;102839.13;6223002;22;20044;-74
2022/12/18 03:36:07;;;;;;;38.83;14.52;;;;;;;-5.56;96.89;102830.56;6223357;22;20072;-75
2022/12/18 03:38:34;;;;;;;36.50;14.55;;;;;;;-5.59;96.72;102828.53;6250064;22;20027;-75
2022/12/18 03:41:11;;;;;;;34.30;14.15;;;;;;;-5.61;96.91;102827.28;6223131;22;20032;-75
2022/12/18 03:44:12;;;;;;;35.10;15.13;;;;;;;-5.61;96.80;102827.28;6222973;22;20019;-75
2022/12/18 03:47:07;;;;;;;38.35;14.25;;;;;;;-5.62;96.70;102823.16;6222134;22;20025;-75
2022/12/18 03:49:43;;;;;;;33.25;14.20;;;;;;;-5.63;96.60;102821.59;6197668;22;20013;-75
2022/12/18 03:52:17;;;;;;;33.40;14.02;;;;;;;-5.68;96.52;102819.84;6198211;22;20454;-75
2022/12/18 03:54:46;;;;;;;41.13;14.60;;;;;;;-5.71;96.68;102823.00;6222958;22;20339;-75
2022/12/18 03:57:22;;;;;;;31.27;14.38;;;;;;;-5.73;96.57;102825.09;6222581;22;20013;-76
2022/12/18 04:00:04;;;;;;;34.08;14.32;;;;;;;-5.76;96.70;102813.44;6222524;22;20147;-76
2022/12/18 04:02:52;;;;;;;28.75;13.20;;;;;;;-5.76;96.33;102808.25;6249595;22;20028;-76
2022/12/18 04:05:27;;;;;;;32.20;13.75;;;;;;;-5.77;96.15;102811.91;6198631;22;20075;-76
2022/12/18 04:07:56;;;;;;;34.08;14.80;;;;;;;-5.80;96.14;102807.25;6197843;22;20023;-76
2022/12/18 04:10:22;;;;;;;28.60;14.23;;;;;;;-5.81;96.31;102807.53;6222606;22;20028;-76
2022/12/18 04:12:49;;;;;;;29.25;13.10;;;;;;;-5.83;96.42;102805.22;6222814;22;20025;-76
2022/12/18 04:15:16;;;;;;;32.78;14.43;;;;;;;-5.86;96.30;102805.00;6222179;22;20505;-76
2022/12/18 04:17:52;;;;;;;34.85;14.05;;;;;;;-5.89;96.00;102795.97;6222672;22;20095;-75
2022/12/18 04:20:22;;;;;;;27.48;12.18;;;;;;;-5.91;96.24;102789.53;6223707;22;20024;-76
2022/12/18 04:22:49;;;;;;;27.88;11.60;;;;;;;-5.94;96.43;102784.88;6223610;22;20028;-75
2022/12/18 04:25:18;;;;;;;23.98;11.95;;;;;;;-5.96;96.30;102789.59;6251365;22;20083;-76
2022/12/18 04:28:03;;;;;;;24.63;11.02;;;;;;;-5.98;96.32;102784.66;6224161;22;20052;-76
2022/12/18 04:30:30;;;;;;;33.58;12.13;;;;;;;-5.99;96.31;102779.75;6222851;22;20029;-75
2022/12/18 04:32:58;;;;;;;26.90;11.68;;;;;;;-6.01;96.41;102782.66;6224131;22;20110;-77
2022/12/18 04:35:24;;;;;;;23.63;11.50;;;;;;;-6.02;96.42;102775.91;6223657;22;20067;-75
2022/12/18 04:37:51;;;;;;;21.83;11.43;;;;;;;-6.03;96.47;102784.75;6251208;22;20092;-77
2022/12/18 04:40:17;;;;;;;25.52;12.38;;;;;;;-6.03;96.12;102786.56;6251352;22;20013;-76
2022/12/18 04:42:46;;;;;;;15.73;8.90;;;;;;;-6.08;96.11;102784.81;6223273;22;20028;-74
2022/12/18 04:45:13;;;;;;;24.60;11.00;;;;;;;-6.09;96.27;102789.22;6250776;22;20410;-74
2022/12/18 04:47:40;;;;;;;21.10;10.70;;;;;;;-6.08;96.52;102795.19;6250966;22;20032;-74
2022/12/18 04:50:06;;;;;;;21.38;11.10;;;;;;;-6.09;96.45;102801.41;6250942;22;20023;-74
2022/12/18 04:52:33;;;;;;;23.85;10.40;;;;;;;-6.09;96.53;102814.38;6250712;22;20048;-74
2022/12/18 04:54:59;;;;;;;22.40;11.13;;;;;;;-6.11;96.57;102812.06;6223966;22;20017;-75
2022/12/18 04:57:26;;;;;;;20.67;10.38;;;;;;;-6.11;96.31;102821.66;6224058;22;20422;-74
2022/12/18 04:59:52;;;;;;;27.40;10.50;;;;;;;-6.13;96.50;102821.94;6250128;22;20023;-74
2022/12/18 05:02:19;;;;;;;24.85;11.52;;;;;;;-6.13;96.26;102814.16;6251018;22;20362;-75
2022/12/18 05:04:45;;;;;;;18.77;10.70;;;;;;;-6.13;96.19;102823.75;6223875;22;20095;-74
2022/12/18 05:07:12;;;;;;;18.98;9.90;;;;;;;-6.12;96.48;102833.84;6223935;22;20040;-74
2022/12/18 05:09:38;;;;;;;21.33;11.52;;;;;;;-6.13;96.53;102836.72;6250668;22;20020;-75
2022/12/18 05:12:05;;;;;;;18.90;9.18;;;;;;;-6.13;96.16;102839.31;6251236;22;20016;-75
2022/12/18 05:14:32;;;;;;;18.23;9.18;;;;;;;-6.14;96.48;102830.75;6249933;22;20016;-75
2022/12/18 05:16:58;;;;;;;22.30;9.65;;;;;;;-6.14;96.30;102838.53;6251385;22;20016;-75
2022/12/18 05:19:26;;;;;;;20.25;9.15;;;;;;;-6.16;96.59;102840.63;6223375;22;20027;-75
2022/12/18 05:21:53;;;;;;;20.27;9.05;;;;;;;-6.16;96.11;102842.44;6250828;22;20020;-75
2022/12/18 05:24:19;;;;;;;16.92;9.43;;;;;;;-6.17;96.55;102840.91;6250921;22;20047;-75
2022/12/18 05:26:46;;;;;;;26.67;11.35;;;;;;;-6.17;96.20;102851.28;6250276;22;20016;-76
2022/12/18 05:29:13;;;;;;;18.05;9.65;;;;;;;-6.19;96.40;102854.13;6250904;22;20013;-76
2022/12/18 05:31:40;;;;;;;16.90;9.48;;;;;;;-6.19;96.48;102858.56;6250140;22;20016;-76
2022/12/18 05:34:08;;;;;;;20.00;10.13;;;;;;;-6.18;96.39;102860.88;6224645;22;20013;-76
2022/12/18 05:36:36;;;;;;;18.75;9.95;;;;;;;-6.17;96.44;102862.41;6224233;22;20067;-76
2022/12/18 05:39:03;;;;;;;15.23;9.00;;;;;;;-6.18;96.18;102857.50;6250927;22;20063;-77
2022/12/18 05:41:29;;;;;;;18.95;10.05;;;;;;;-6.18;95.93;102852.31;6249952;22;20418;-75
2022/12/18 05:43:56;;;;;;;21.05;9.88;;;;;;;-6.18;95.95;102844.53;6250954;22;20048;-75
2022/12/18 05:46:24;;;;;;;18.85;8.98;;;;;;;-6.19;95.86;102837.81;6251302;22;20013;-75
2022/12/18 05:48:51;;;;;;;16.17;8.65;;;;;;;-6.19;95.83;102828.22;6224077;22;20020;-75
2022/12/18 05:51:20;;;;;;;15.00;8.98;;;;;;;-6.18;95.87;102827.16;6250834;22;20051;-75
2022/12/18 05:53:47;;;;;;;27.98;9.55;;;;;;;-6.19;96.24;102830.03;6250714;22;20071;-75
2022/12/18 05:56:20;;;;;;;15.73;8.80;;;;;;;-6.20;95.73;102828.47;6223621;22;20067;-75
2022/12/18 05:58:50;;;;;;;17.95;9.77;;;;;;;-6.21;95.92;102830.31;6223504;22;20354;-75
2022/12/18 06:01:19;;;;;;;16.40;8.52;;;;;;;-6.22;95.94;102828.75;6223882;22;20020;-75
2022/12/18 06:03:46;;;;;;;18.00;9.52;;;;;;;-6.23;95.61;102822.03;6250422;22;20023;-75
2022/12/18 06:06:14;;;;;;;14.15;8.38;;;;;;;-6.24;95.73;102823.06;6250828;22;20446;-74
2022/12/18 06:08:41;;;;;;;17.83;9.23;;;;;;;-6.24;95.43;102823.06;6250459;22;20019;-75
2022/12/18 06:11:13;;;;;;;23.17;11.18;;;;;;;-6.24;95.49;102817.88;6250172;22;20434;-74
2022/12/18 06:13:39;;;;;;;19.75;9.95;;;;;;;-6.26;95.87;102812.22;6250308;22;20023;-76
2022/12/18 06:16:07;;;;;;;21.67;10.25;;;;;;;-6.28;95.33;102811.72;6250504;22;20075;-74
2022/12/18 06:18:37;;;;;;;18.75;9.07;;;;;;;-6.27;95.60;102802.88;6250362;22;20016;-73
2022/12/18 06:21:04;;;;;;;15.75;9.43;;;;;;;-6.29;95.74;102796.41;6250726;22;20021;-75
2022/12/18 06:23:31;;;;;;;21.33;9.88;;;;;;;-6.32;95.46;102794.38;6223084;22;20045;-75
2022/12/18 06:25:57;;;;;;;23.98;9.90;;;;;;;-6.34;95.60;102793.88;6250176;22;20027;-75
2022/12/18 06:28:24;;;;;;;18.48;9.48;;;;;;;-6.34;95.45;102793.88;6250543;22;20451;-75
2022/12/18 06:30:50;;;;;;;17.00;10.40;;;;;;;-6.36;95.36;102795.97;6251019;22;20008;-75
2022/12/18 06:33:17;;;;;;;22.02;10.55;;;;;;;-6.38;95.30;102798.84;6250564;22;20020;-75
2022/12/18 06:35:43;;;;;;;16.77;9.02;;;;;;;-6.41;94.93;102789.81;6250561;22;20461;-75
2022/12/18 06:38:10;;;;;;;18.90;8.85;;;;;;;-6.42;94.91;102777.91;6250630;22;20016;-75
2022/12/18 06:40:38;;;;;;;18.38;10.15;;;;;;;-6.42;95.25;102779.72;6249844;22;20032;-75
2022/12/18 06:43:06;;;;;;;18.15;9.65;;;;;;;-6.44;95.08;102780.00;6250370;22;20024;-75
2022/12/18 06:45:32;;;;;;;23.00;9.32;;;;;;;-6.45;94.96;102785.44;6250398;22;20013;-75
2022/12/18 06:47:59;;;;;;;17.73;9.45;;;;;;;-6.49;95.14;102782.63;6250555;22;20016;-75
2022/12/18 06:50:25;;;;;;;17.70;9.63;;;;;;;-6.49;95.11;102777.44;6223124;22;20053;-75
2022/12/18 06:52:52;;;;;;;14.95;8.88;;;;;;;-6.51;94.88;102764.00;6250611;22;20032;-76
2022/12/18 06:55:18;;;;;;;14.88;8.82;;;;;;;-6.51;94.86;102764.00;6250142;22;20446;-76
2022/12/18 06:57:45;;;;;;;20.20;9.13;;;;;;;-6.51;95.44;102764.00;6250430;22;20099;-75
2022/12/18 07:00:12;;;;;;;19.67;9.63;;;;;;;-6.52;95.43;102759.84;6223618;22;20358;-75
2022/12/18 07:02:38;;;;;;;15.30;8.48;;;;;;;-6.53;95.30;102753.13;6250017;22;20017;-75
2022/12/18 07:05:06;;;;;;;22.42;9.63;;;;;;;-6.55;95.57;102760.41;6223331;22;20091;-74
2022/12/18 07:07:36;;;;;;;23.17;9.05;;;;;;;-6.55;95.43;102755.22;6250313;22;20395;-74
2022/12/18 07:10:04;;;;;;;18.05;8.55;;;;;;;-6.56;95.01;102756.25;6249910;22;20444;-74
2022/12/18 07:12:30;;;;;;;13.43;9.00;;;;;;;-6.56;95.39;102755.50;6250244;22;20012;-74
2022/12/18 07:14:56;;;;;;;13.90;9.02;;;;;;;-6.58;95.46;102747.22;6249604;22;20400;-77
2022/12/18 07:17:23;;;;;;;18.73;9.70;;;;;;;-6.60;95.05;102744.13;6250635;22;20365;-75
2022/12/18 07:19:50;;;;;;;15.02;8.48;;;;;;;-6.57;95.62;102741.00;6250486;22;20394;-75
2022/12/18 07:22:16;;;;;;;17.85;9.48;;;;;;;-6.57;95.43;102736.59;6250452;22;20503;-75
2022/12/18 07:24:43;;;;;;;17.77;9.07;;;;;;;-6.57;95.15;102739.16;6249411;22;20019;-75
2022/12/18 07:27:09;;;;;;;17.77;9.55;;;;;;;-6.55;95.03;102744.09;6198053;22;20044;-76
2022/12/18 07:29:36;;;;;;;17.27;9.30;;;;;;;-6.54;95.27;102740.44;6222916;22;20052;-75
2022/12/18 07:32:03;;;;;;;19.27;8.95;;;;;;;-6.56;95.49;102740.72;6223488;22;20016;-76
2022/12/18 07:34:30;;;;;;;12.95;8.73;;;;;;;-6.57;95.05;102730.63;6249416;22;20017;-76
2022/12/18 07:36:56;;;;;;;20.02;9.32;;;;;;;-6.58;95.44;102726.50;6249863;22;20091;-75
2022/12/18 07:39:23;;;;;;;15.63;9.20;;;;;;;-6.57;95.11;102717.66;6249179;22;20344;-78
2022/12/18 07:42:30;;;;;;;18.17;9.60;;;;;;;-6.57;94.97;102715.84;6250134;22;20012;-78
2022/12/18 07:44:38;;;;;;;14.68;8.73;;;;;;;-6.56;95.65;102721.81;6249385;22;20017;-78
2022/12/18 07:47:05;;;;;;;16.08;8.60;;;;;;;-6.59;95.15;102710.19;6250371;22;20394;-78
2022/12/18 07:49:37;;;;;;;18.27;9.57;;;;;;;-6.58;95.43;102703.16;6222636;22;20061;-78
2022/12/18 07:52:04;;;;;;;15.90;9.38;;;;;;;-6.59;95.48;102710.19;6222629;22;20048;-78
2022/12/18 07:54:30;;;;;;;17.13;9.50;;;;;;;-6.57;95.61;102700.31;6249109;22;20044;-78
2022/12/18 07:56:57;;;;;;;16.63;8.70;;;;;;;-6.55;95.75;102690.44;6249689;22;20121;-78
2022/12/18 07:59:23;;;;;;;20.73;9.07;;;;;;;-6.53;95.57;102687.56;6249854;22;20443;-78
2022/12/18 08:01:50;;;;;;;14.52;8.82;;;;;;;-6.51;95.55;102694.03;6249810;22;20024;-78
2022/12/18 08:04:17;;;;;;;13.30;8.68;;;;;;;-6.50;95.31;102690.38;6249779;22;20079;-78
2022/12/18 08:06:43;;;;;;;16.23;9.40;;;;;;;-6.48;95.16;102693.47;6247896;22;20017;-79
2022/12/18 08:09:13;;;;;;;15.15;9.15;;;;;;;-6.46;95.37;102672.47;6221674;22;20021;-78
2022/12/18 08:11:40;;;;;;;16.00;9.32;;;;;;;-6.45;95.06;102669.59;6248666;22;20124;-78
2022/12/18 08:14:06;;;;;;;19.73;9.85;;;;;;;-6.42;95.17;102676.81;6249103;22;20059;-77
2022/12/18 08:16:33;;;;;;;19.90;8.77;;;;;;;-6.41;94.78;102673.19;6220575;22;20470;-78
2022/12/18 08:19:00;;;;;;;15.48;9.10;;;;;;;-6.38;94.81;102680.38;6248898;22;20533;-77
2022/12/18 08:21:29;;;;;;;15.35;8.77;;;;;;;-6.33;94.99;102673.59;6247412;22;20012;-77
2022/12/18 08:23:58;;;;;;;19.58;9.05;;;;;;;-6.31;95.44;102674.09;6248261;22;20020;-76
2022/12/18 08:26:27;;;;;;;17.08;9.45;;;;;;;-6.27;95.33;102680.28;6247834;22;20048;-76
2022/12/18 08:28:56;;;;;;;15.20;9.50;;;;;;;-6.21;95.13;102694.72;6221219;22;20025;-76
2022/12/18 08:31:23;;;;;;;18.42;9.82;;;;;;;-6.17;95.55;102700.91;6221152;22;20041;-76
2022/12/18 08:33:51;;;;;;;18.65;10.05;;;;;;;-6.14;95.51;102711.47;6248841;22;20017;-76
2022/12/18 08:36:18;;;;;;;18.77;9.63;;;;;;;-6.12;95.33;102711.22;6247819;22;20013;-77
2022/12/18 08:38:45;;;;;;;18.77;10.98;;;;;;;-6.13;95.67;102699.28;6248390;22;20024;-76
2022/12/18 08:41:14;;;;;;;19.58;11.18;;;;;;;-6.11;95.70;102703.16;6221132;22;20123;-77
2022/12/18 08:46:31;;;;;;;20.83;12.30;;;;;;;-6.09;95.80;102690.69;6220946;22;20044;-76
2022/12/18 08:48:57;;;;;;;20.80;11.63;;;;;;;-6.03;95.57;102688.81;6248712;22;20020;-78
2022/12/18 08:51:24;;;;;;;20.52;11.35;;;;;;;-6.02;95.65;102695.53;6247586;22;20029;-76
2022/12/18 08:53:51;;;;;;;23.98;13.07;;;;;;;-6.01;95.37;102691.88;6248533;22;20439;-77
2022/12/18 08:56:17;;;;;;;26.40;12.60;;;;;;;-5.98;95.54;102688.72;6248111;22;20020;-77
2022/12/18 08:58:44;;;;;;;23.83;12.25;;;;;;;-5.97;95.58;102679.88;6248070;22;20351;-76
2022/12/18 09:01:12;;;;;;;22.48;11.15;;;;;;;-5.90;95.93;102693.28;6248490;22;20020;-77
2022/12/18 09:03:39;;;;;;;18.33;11.00;;;;;;;-5.82;95.60;102712.59;6248400;22;20017;-76
2022/12/18 09:06:07;;;;;;;19.77;10.55;;;;;;;-5.77;95.80;102709.94;6248905;22;20052;-76
2022/12/18 09:08:39;;;;;;;16.48;10.32;;;;;;;-5.71;95.81;102698.44;6249193;22;20092;-77
2022/12/18 09:11:12;;;;;;;16.35;10.35;;;;;;;-5.63;95.71;102694.47;6250348;22;20017;-78
2022/12/18 09:13:39;;;;;;;17.33;10.15;;;;;;;-5.58;95.78;102689.94;6249896;22;20020;-78
2022/12/18 09:16:06;;;;;;;19.00;9.73;;;;;;;-5.53;95.90;102691.69;6249607;22;20016;-77
2022/12/18 09:18:35;;;;;;;20.13;10.43;;;;;;;-5.46;95.83;102697.28;6249485;22;20024;-77
2022/12/18 09:21:19;;;;;;;21.58;11.32;;;;;;;-5.41;95.80;102687.63;6249275;22;20047;-77
2022/12/18 09:23:50;;;;;;;19.90;11.13;;;;;;;-5.35;95.46;102685.72;6249408;22;20028;-76
2022/12/18 09:26:17;;;;;;;20.65;11.70;;;;;;;-5.31;95.59;102691.88;6249626;22;20343;-76
2022/12/18 09:28:43;;;;;;;28.23;11.75;;;;;;;-5.25;95.72;102695.16;6222454;22;20047;-76
2022/12/18 09:31:15;;;;;;;20.90;11.80;;;;;;;-5.21;95.68;102691.72;6222836;22;20087;-77
2022/12/18 09:33:42;;;;;;;;;;;;;;;-5.15;95.79;102695.75;6222201;22;20036;-78
2022/12/18 09:36:11;;;;;;;13.75;8.85;;;;;;;-5.09;95.67;102688.66;6250070;22;19994;-77
2022/12/18 09:38:37;;;;;;;19.02;10.00;;;;;;;-5.05;95.52;102663.66;6249675;22;20021;-77
2022/12/18 09:41:19;;;;;;;18.63;11.07;;;;;;;-4.99;95.56;102667.72;6223307;22;20017;-76
2022/12/18 09:43:50;;;;;;;23.42;10.07;;;;;;;-4.94;95.41;102661.66;6249643;22;20537;-77
2022/12/18 09:46:25;;;;;;;20.33;10.73;;;;;;;-4.89;95.39;102667.53;6249581;22;20013;-77
2022/12/18 09:48:54;;;;;;;17.17;10.23;;;;;;;-4.82;95.40;102662.75;6249141;22;20040;-77
2022/12/18 09:51:37;;;;;;;17.48;9.65;;;;;;;-4.74;95.50;102662.03;6249698;22;20016;-77
2022/12/18 09:54:10;;;;;;;16.63;9.65;;;;;;;-4.67;95.48;102651.28;6223301;22;20036;-76
2022/12/18 09:56:41;;;;;;;17.77;10.15;;;;;;;-4.60;95.48;102643.88;6249610;22;20013;-76
2022/12/18 09:59:23;;;;;;;14.73;9.38;;;;;;;-4.52;95.18;102650.22;6249818;22;20162;-76
2022/12/18 10:01:50;;;;;;;17.10;9.52;;;;;;;-4.45;95.72;102648.78;6250038;22;20016;-77
2022/12/18 10:04:18;;;;;;;17.85;9.30;;;;;;;-4.38;95.35;102643.94;6222206;22;20017;-78
2022/12/18 10:06:53;;;;;;;7.13;5.72;;;;;;;-4.28;95.31;102644.78;6249709;22;20016;-78
2022/12/18 10:09:46;;;;;;;18.52;9.25;;;;;;;-4.21;95.30;102647.75;6222503;22;20023;-78
2022/12/18 10:12:40;;;;;;;16.08;9.07;;;;;;;-4.11;95.00;102644.94;6244059;22;20017;-77
2022/12/18 10:15:18;;;;;;;14.45;7.82;;;;;;;-4.04;94.93;102637.53;6217802;23;20020;-77
2022/12/18 10:17:58;;;;;;;18.20;9.30;;;;;;;-3.96;95.00;102636.03;6218971;22;20044;-77
2022/12/18 10:20:33;;;;;;;16.25;9.57;;;;;;;-3.90;94.66;102634.84;6217241;23;20467;-78
2022/12/18 10:23:33;;;;;;;13.68;8.15;;;;;;;-3.84;94.79;102639.66;6219414;22;20013;-78
2022/12/18 10:26:06;;;;;;;17.83;9.15;;;;;;;-3.78;94.54;102642.91;6219593;23;20354;-78
2022/12/18 10:28:36;;;;;;;14.40;8.63;;;;;;;-3.73;94.13;102651.38;6218418;22;20419;-77
2022/12/18 10:31:06;;;;;;;12.82;7.55;;;;;;;-3.69;94.31;102638.53;6219624;22;20041;-78
2022/12/18 10:33:33;;;;;;;20.08;9.52;;;;;;;-3.64;94.05;102625.41;6218267;22;20017;-78
2022/12/18 10:36:00;;;;;;;19.33;8.77;;;;;;;-3.58;94.02;102620.84;6217584;23;20108;-78
2022/12/18 10:38:30;;;;;;;16.27;9.70;;;;;;;-3.55;93.86;102608.00;6217050;23;20017;-78
2022/12/18 10:41:03;;;;;;;18.35;9.30;;;;;;;-3.50;93.82;102620.91;6219496;22;20021;-78
2022/12/18 10:43:33;;;;;;;15.95;9.30;;;;;;;-3.45;93.59;102631.19;6218662;22;20013;-77
2022/12/18 10:46:09;;;;;;;19.33;9.07;;;;;;;-3.40;93.63;102617.28;6219175;22;20020;-80
2022/12/18 10:48:47;;;;;;;13.82;8.77;;;;;;;-3.33;93.47;102609.81;6217623;23;20088;-80
2022/12/18 10:51:29;;;;;;;14.80;8.82;;;;;;;-3.27;93.73;102603.41;6218001;23;20024;-78
2022/12/18 10:54:22;;;;;;;16.45;8.82;;;;;;;-3.21;93.22;102604.81;6217467;23;20350;-78
2022/12/18 10:56:49;;;;;;;20.67;8.68;;;;;;;-3.17;93.06;102608.34;6219203;23;20017;-79
2022/12/18 10:59:17;;;;;;;12.02;7.93;;;;;;;-3.11;92.95;102607.13;6218890;22;20053;-78
2022/12/18 11:01:54;;;;;;;14.48;8.50;;;;;;;-3.05;92.60;102597.34;6218493;22;20371;-78
2022/12/18 11:04:22;;;;;;;13.85;8.25;;;;;;;-3.01;92.80;102585.25;6218947;22;20041;-78
2022/12/18 11:07:10;;;;;;;18.58;8.82;;;;;;;-2.96;92.37;102582.53;6219239;22;20013;-78
2022/12/18 11:09:39;;;;;;;16.80;8.43;;;;;;;-2.91;92.31;102579.78;6219180;23;20023;-79
2022/12/18 11:12:17;;;;;;;13.82;8.38;;;;;;;-2.86;92.23;102573.66;6219495;22;20060;-80
2022/12/18 11:14:59;;;;;;;14.35;8.07;;;;;;;-2.81;91.77;102566.47;6221051;22;20359;-78
2022/12/18 11:17:31;;;;;;;11.95;8.65;;;;;;;-2.76;91.85;102568.16;6249353;22;20458;-80
2022/12/18 11:19:59;;;;;;;13.73;8.65;;;;;;;-2.72;91.42;102564.63;6249697;22;20465;-78
2022/12/18 11:22:27;;;;;;;13.90;8.80;;;;;;;-2.66;91.11;102562.66;6249158;22;20052;-77
2022/12/18 11:25:05;;;;;;;11.95;8.25;;;;;;;-2.61;90.80;102543.50;6249803;22;20013;-77
2022/12/18 11:27:55;;;;;;;14.57;8.88;;;;;;;-2.54;90.50;102546.41;6249368;22;20063;-78
2022/12/18 11:30:37;;;;;;;16.27;8.80;;;;;;;-2.50;90.44;102544.72;6221225;22;20012;-76
2022/12/18 11:33:20;;;;;;;17.40;8.73;;;;;;;-2.43;90.09;102542.44;6250096;22;20023;-76
2022/12/18 11:35:53;;;;;;;14.52;8.32;;;;;;;-2.38;89.71;102556.06;6249547;22;20016;-77